マガダン の空港の天気 - METARとTAF

マガダン・ソコル空港 ( UHMM / GDX ) - ロシア マガダン
飛行場実況気象(Metar)
観測時間10/16 04:00 MAGT (10/15 17:00 UTC)
風向・風速南南東 1m/s
視程10km以上
天気現象
なし
気温-10℃
湿度85%
気圧998hPa
METARUHMM 151700Z 16001MPS 9999 NSC M10/M12 Q0998 RMK QFE734
過去の天気等 Google飛行場航空写真 Wunderground天気予報

過去48時間のMETAR

飛行場予報(TAF)
発表時間: 10/16 03:45 MAGT (10/15 16:45 UTC)
予報対象時間: 16日5時 MAGT ~ 17日11時 MAGT
風向・風速北北西 3m/s 瞬間風速 8m/s
視程10km以上
なし
16日11時 MAGT ~ 16日12時 MAGT に徐々に
風向・風速北 5m/s 瞬間風速 12m/s
TAF UHMM 151645Z 1518/1624 34003G08MPS 9999 NSC
BECMG 1600/1601 35005G12MPS